IBE352 LEBB-LPFR
Flight info
| Callsign | IBE352 |
|---|---|
| Flight time | 1h 15m |
| Altitude | 39000 |
| Route | AMTOS4A AMTOS L14 ADINO DCT RAKOD DCT ELVAR DCT ALAGU ALAGU6K |
| Aircraft | A343/H-VGDW/C |
Departure
| Time | 2026-05-04 15:46 |
|---|---|
| Airport | Bilbao Airport (LEBB) |
Arrival
| Time | 2026-05-04 17:01 |
|---|---|
| Airport | Faro - Gago Coutinho International Airport (LPFR) |
| Time | Latitude | Longitude | Altitude | Speed | Heading |
|---|---|---|---|---|---|
| 2026-05-04 15:33 | 43.30375 | -2.90510 | 131 ft | 0 kts | 26° |
| 2026-05-04 15:38 | 43.30369 | -2.90514 | 131 ft | 3 kts | 26° |
| 2026-05-04 15:38 | 43.30353 | -2.90525 | 124 ft | 3 kts | 26° |
| 2026-05-04 15:39 | 43.30336 | -2.90536 | 129 ft | 3 kts | 45° |
| 2026-05-04 15:39 | 43.30325 | -2.90559 | 131 ft | 3 kts | 90° |
| 2026-05-04 15:39 | 43.30327 | -2.90582 | 131 ft | 0 kts | 130° |
| 2026-05-04 15:41 | 43.30322 | -2.90574 | 126 ft | 5 kts | 130° |
| 2026-05-04 15:41 | 43.30286 | -2.90540 | 122 ft | 7 kts | 150° |
| 2026-05-04 15:42 | 43.30233 | -2.90529 | 131 ft | 11 kts | 193° |
| 2026-05-04 15:42 | 43.30160 | -2.90569 | 126 ft | 10 kts | 201° |
| 2026-05-04 15:42 | 43.30109 | -2.90542 | 125 ft | 8 kts | 126° |
| 2026-05-04 15:42 | 43.30071 | -2.90445 | 123 ft | 17 kts | 118° |
| 2026-05-04 15:43 | 43.30006 | -2.90269 | 132 ft | 23 kts | 117° |
| 2026-05-04 15:43 | 43.29933 | -2.90069 | 130 ft | 24 kts | 116° |
| 2026-05-04 15:43 | 43.29860 | -2.89863 | 126 ft | 24 kts | 116° |
| 2026-05-04 15:43 | 43.29788 | -2.89671 | 127 ft | 14 kts | 116° |
| 2026-05-04 15:44 | 43.29739 | -2.89594 | 127 ft | 9 kts | 166° |
| 2026-05-04 15:44 | 43.29681 | -2.89634 | 126 ft | 12 kts | 227° |
| 2026-05-04 15:44 | 43.29636 | -2.89745 | 128 ft | 13 kts | 270° |
| 2026-05-04 15:44 | 43.29644 | -2.89781 | 129 ft | 0 kts | 292° |
| 2026-05-04 15:45 | 43.29645 | -2.89781 | 129 ft | 2 kts | 292° |
| 2026-05-04 15:46 | 43.29697 | -2.89941 | 126 ft | 48 kts | 295° |
| 2026-05-04 15:46 | 43.29972 | -2.90683 | 129 ft | 124 kts | 296° |
| 2026-05-04 15:46 | 43.30442 | -2.91968 | 407 ft | 166 kts | 296° |
| 2026-05-04 15:46 | 43.30989 | -2.93431 | 1157 ft | 180 kts | 298° |
| 2026-05-04 15:47 | 43.31752 | -2.94858 | 1739 ft | 193 kts | 310° |
| 2026-05-04 15:47 | 43.32642 | -2.96337 | 2375 ft | 210 kts | 311° |
| 2026-05-04 15:47 | 43.33629 | -2.97953 | 2974 ft | 230 kts | 310° |
| 2026-05-04 15:47 | 43.34666 | -2.99729 | 3663 ft | 245 kts | 309° |
| 2026-05-04 15:48 | 43.35837 | -3.01454 | 4635 ft | 249 kts | 317° |
| 2026-05-04 15:48 | 43.37109 | -3.03093 | 5544 ft | 254 kts | 313° |
| 2026-05-04 15:48 | 43.38382 | -3.07550 | 7435 ft | 264 kts | 267° |
| 2026-05-04 15:49 | 43.37845 | -3.09975 | 8263 ft | 272 kts | 238° |
| 2026-05-04 15:49 | 43.36464 | -3.11751 | 9172 ft | 278 kts | 208° |
| 2026-05-04 15:49 | 43.34603 | -3.12465 | 10096 ft | 281 kts | 183° |
| 2026-05-04 15:49 | 43.32611 | -3.12324 | 10728 ft | 296 kts | 177° |
| 2026-05-04 15:50 | 43.30493 | -3.12087 | 11173 ft | 314 kts | 178° |
| 2026-05-04 15:50 | 43.28280 | -3.11941 | 11652 ft | 330 kts | 180° |
| 2026-05-04 15:50 | 43.25963 | -3.11946 | 12355 ft | 336 kts | 184° |
| 2026-05-04 15:50 | 43.23615 | -3.12121 | 13078 ft | 340 kts | 187° |
| 2026-05-04 15:51 | 43.21246 | -3.12482 | 13840 ft | 344 kts | 190° |
| 2026-05-04 15:51 | 43.18883 | -3.13042 | 14535 ft | 346 kts | 194° |
| 2026-05-04 15:51 | 43.16532 | -3.13820 | 15248 ft | 348 kts | 197° |
| 2026-05-04 15:51 | 43.14218 | -3.14832 | 15951 ft | 350 kts | 201° |
| 2026-05-04 15:52 | 43.11953 | -3.16097 | 16663 ft | 353 kts | 206° |
| 2026-05-04 15:52 | 43.09740 | -3.17581 | 17366 ft | 355 kts | 206° |
| 2026-05-04 15:52 | 43.07458 | -3.18790 | 18070 ft | 359 kts | 198° |
| 2026-05-04 15:52 | 43.05032 | -3.19698 | 18694 ft | 363 kts | 196° |
| 2026-05-04 15:53 | 43.02597 | -3.20648 | 19306 ft | 366 kts | 200° |
| 2026-05-04 15:53 | 43.00221 | -3.21933 | 19893 ft | 369 kts | 207° |
| 2026-05-04 15:53 | 42.97982 | -3.23650 | 20490 ft | 371 kts | 213° |
| 2026-05-04 15:53 | 42.95825 | -3.25606 | 21030 ft | 374 kts | 216° |
| 2026-05-04 15:54 | 42.93694 | -3.27669 | 21595 ft | 377 kts | 217° |
| 2026-05-04 15:54 | 42.91557 | -3.29766 | 22174 ft | 380 kts | 217° |
| 2026-05-04 15:54 | 42.89396 | -3.31865 | 22762 ft | 383 kts | 217° |
| 2026-05-04 15:54 | 42.87205 | -3.33958 | 23327 ft | 386 kts | 217° |
| 2026-05-04 15:55 | 42.85021 | -3.36013 | 23816 ft | 389 kts | 217° |
| 2026-05-04 15:55 | 42.82778 | -3.38099 | 24290 ft | 391 kts | 216° |
| 2026-05-04 15:55 | 42.80522 | -3.40183 | 24743 ft | 393 kts | 216° |
| 2026-05-04 15:55 | 42.78251 | -3.42274 | 25212 ft | 395 kts | 216° |
| 2026-05-04 15:56 | 42.75969 | -3.44374 | 25681 ft | 396 kts | 216° |
| 2026-05-04 15:56 | 42.73694 | -3.46466 | 26223 ft | 395 kts | 216° |
| 2026-05-04 15:56 | 42.71411 | -3.48566 | 26648 ft | 398 kts | 216° |
| 2026-05-04 15:56 | 42.69112 | -3.50679 | 27034 ft | 400 kts | 216° |
| 2026-05-04 15:57 | 42.66832 | -3.52774 | 27437 ft | 402 kts | 216° |
| 2026-05-04 15:57 | 42.64508 | -3.54910 | 27841 ft | 404 kts | 216° |
| 2026-05-04 15:57 | 42.62173 | -3.57052 | 28227 ft | 406 kts | 216° |
| 2026-05-04 15:57 | 42.59825 | -3.59205 | 28612 ft | 408 kts | 216° |
| 2026-05-04 15:58 | 42.57464 | -3.61367 | 28964 ft | 411 kts | 216° |
| 2026-05-04 15:58 | 42.55089 | -3.63539 | 29306 ft | 413 kts | 216° |
| 2026-05-04 15:58 | 42.52703 | -3.65720 | 29663 ft | 415 kts | 216° |
| 2026-05-04 15:58 | 42.50304 | -3.67911 | 29991 ft | 417 kts | 216° |
| 2026-05-04 15:59 | 42.47892 | -3.70112 | 30286 ft | 419 kts | 216° |
| 2026-05-04 15:59 | 42.45468 | -3.72322 | 30579 ft | 421 kts | 216° |
| 2026-05-04 15:59 | 42.43064 | -3.74511 | 30838 ft | 423 kts | 216° |
| 2026-05-04 15:59 | 42.40618 | -3.76736 | 31086 ft | 425 kts | 216° |
| 2026-05-04 16:00 | 42.38155 | -3.78976 | 31307 ft | 427 kts | 216° |
| 2026-05-04 16:00 | 42.35681 | -3.81223 | 31581 ft | 429 kts | 216° |
| 2026-05-04 16:00 | 42.33195 | -3.83477 | 31880 ft | 430 kts | 216° |
| 2026-05-04 16:00 | 42.30715 | -3.85725 | 32264 ft | 429 kts | 216° |
| 2026-05-04 16:01 | 42.28236 | -3.87967 | 32597 ft | 429 kts | 216° |
| 2026-05-04 16:01 | 42.25757 | -3.90209 | 32880 ft | 430 kts | 216° |
| 2026-05-04 16:01 | 42.23306 | -3.92425 | 33152 ft | 430 kts | 216° |
| 2026-05-04 16:01 | 42.20819 | -3.94670 | 33451 ft | 430 kts | 216° |
| 2026-05-04 16:02 | 42.18328 | -3.96917 | 33756 ft | 430 kts | 216° |
| 2026-05-04 16:02 | 42.15840 | -3.99159 | 34031 ft | 431 kts | 216° |
| 2026-05-04 16:02 | 42.10853 | -4.03647 | 34485 ft | 431 kts | 217° |
| 2026-05-04 16:03 | 42.08363 | -4.05883 | 34760 ft | 430 kts | 217° |
| 2026-05-04 16:03 | 42.05907 | -4.08087 | 35000 ft | 430 kts | 217° |
| 2026-05-04 16:03 | 42.03438 | -4.10364 | 35201 ft | 430 kts | 219° |
| 2026-05-04 16:03 | 42.01115 | -4.12887 | 35426 ft | 429 kts | 222° |
| 2026-05-04 16:04 | 41.98841 | -4.15481 | 35653 ft | 429 kts | 223° |
| 2026-05-04 16:04 | 41.94333 | -4.20751 | 36074 ft | 430 kts | 224° |
| 2026-05-04 16:04 | 41.92082 | -4.23400 | 36276 ft | 430 kts | 224° |
| 2026-05-04 16:05 | 41.89829 | -4.26049 | 36471 ft | 430 kts | 224° |
| 2026-05-04 16:05 | 41.87608 | -4.28653 | 36745 ft | 429 kts | 224° |
| 2026-05-04 16:05 | 41.83107 | -4.33912 | 37135 ft | 430 kts | 223° |
| 2026-05-04 16:06 | 41.80851 | -4.36541 | 37324 ft | 430 kts | 223° |
| 2026-05-04 16:06 | 41.74827 | -4.43544 | 37835 ft | 431 kts | 223° |
| 2026-05-04 16:07 | 41.71798 | -4.47059 | 38072 ft | 431 kts | 223° |
| 2026-05-04 16:07 | 41.65029 | -4.54896 | 38660 ft | 430 kts | 224° |
| 2026-05-04 16:08 | 41.62771 | -4.57506 | 38811 ft | 429 kts | 224° |
| 2026-05-04 16:08 | 41.55953 | -4.65374 | 38980 ft | 436 kts | 224° |
| 2026-05-04 16:09 | 41.51322 | -4.70706 | 38972 ft | 443 kts | 224° |
| 2026-05-04 16:10 | 41.41868 | -4.81555 | 38966 ft | 456 kts | 224° |
| 2026-05-04 16:11 | 41.32259 | -4.92530 | 38957 ft | 454 kts | 224° |
| 2026-05-04 16:12 | 41.17901 | -5.08851 | 38957 ft | 453 kts | 224° |
| 2026-05-04 16:13 | 41.08349 | -5.19646 | 38970 ft | 452 kts | 224° |
| 2026-05-04 16:14 | 40.98759 | -5.30447 | 38983 ft | 452 kts | 224° |
| 2026-05-04 16:16 | 40.86806 | -5.43849 | 38994 ft | 452 kts | 224° |
| 2026-05-04 16:17 | 40.74804 | -5.57240 | 38957 ft | 451 kts | 224° |
| 2026-05-04 16:18 | 40.65216 | -5.67891 | 38960 ft | 451 kts | 224° |
| 2026-05-04 16:19 | 40.53242 | -5.81136 | 38958 ft | 452 kts | 223° |
| 2026-05-04 16:20 | 40.41240 | -5.94351 | 38952 ft | 452 kts | 223° |
| 2026-05-04 16:22 | 40.29184 | -6.07560 | 38946 ft | 451 kts | 223° |
| 2026-05-04 16:23 | 40.14735 | -6.23309 | 38944 ft | 452 kts | 223° |
| 2026-05-04 16:25 | 40.00272 | -6.38985 | 38944 ft | 450 kts | 223° |
| 2026-05-04 16:26 | 39.83373 | -6.57184 | 38942 ft | 451 kts | 223° |
| 2026-05-04 16:28 | 39.71315 | -6.70099 | 38966 ft | 450 kts | 223° |
| 2026-05-04 16:29 | 39.54410 | -6.88089 | 38976 ft | 449 kts | 223° |
| 2026-05-04 16:31 | 39.42302 | -7.00909 | 38983 ft | 450 kts | 223° |
| 2026-05-04 16:32 | 39.27820 | -7.16160 | 38995 ft | 447 kts | 223° |
| 2026-05-04 16:33 | 39.17000 | -7.24059 | 39001 ft | 463 kts | 202° |
| 2026-05-04 16:34 | 39.07641 | -7.27354 | 39001 ft | 465 kts | 201° |
| 2026-05-04 16:35 | 38.88986 | -7.33861 | 38767 ft | 464 kts | 201° |
| 2026-05-04 16:36 | 38.85889 | -7.34937 | 38541 ft | 460 kts | 202° |
| 2026-05-04 16:36 | 38.79708 | -7.37087 | 37141 ft | 462 kts | 202° |
| 2026-05-04 16:37 | 38.73477 | -7.39252 | 35691 ft | 466 kts | 202° |
| 2026-05-04 16:37 | 38.70343 | -7.40338 | 34965 ft | 467 kts | 202° |
| 2026-05-04 16:37 | 38.64084 | -7.42504 | 33436 ft | 471 kts | 202° |
| 2026-05-04 16:38 | 38.57731 | -7.44699 | 31711 ft | 475 kts | 201° |
| 2026-05-04 16:39 | 38.48116 | -7.48012 | 29928 ft | 480 kts | 201° |
| 2026-05-04 16:39 | 38.41696 | -7.50215 | 28612 ft | 472 kts | 201° |
| 2026-05-04 16:40 | 38.35505 | -7.52332 | 27621 ft | 457 kts | 201° |
| 2026-05-04 16:40 | 38.29466 | -7.54399 | 26324 ft | 440 kts | 201° |
| 2026-05-04 16:41 | 38.23722 | -7.56357 | 25147 ft | 414 kts | 201° |
| 2026-05-04 16:41 | 38.15686 | -7.59102 | 23561 ft | 391 kts | 201° |
| 2026-05-04 16:42 | 38.07768 | -7.61421 | 21925 ft | 397 kts | 189° |
| 2026-05-04 16:43 | 38.02243 | -7.61481 | 20905 ft | 396 kts | 186° |
| 2026-05-04 16:43 | 37.96764 | -7.61458 | 19890 ft | 391 kts | 186° |
| 2026-05-04 16:43 | 37.94047 | -7.61454 | 19354 ft | 390 kts | 186° |
| 2026-05-04 16:44 | 37.83315 | -7.61454 | 17346 ft | 383 kts | 185° |
| 2026-05-04 16:45 | 37.78016 | -7.61456 | 16350 ft | 379 kts | 185° |
| 2026-05-04 16:46 | 37.70204 | -7.61458 | 14859 ft | 373 kts | 185° |
| 2026-05-04 16:46 | 37.65029 | -7.61463 | 13884 ft | 371 kts | 185° |
| 2026-05-04 16:47 | 37.59887 | -7.61465 | 12829 ft | 368 kts | 184° |
| 2026-05-04 16:47 | 37.54797 | -7.61467 | 11837 ft | 364 kts | 184° |
| 2026-05-04 16:48 | 37.47281 | -7.61469 | 10496 ft | 354 kts | 183° |
| 2026-05-04 16:48 | 37.44896 | -7.61468 | 10349 ft | 341 kts | 184° |
| 2026-05-04 16:49 | 37.40452 | -7.61460 | 10091 ft | 298 kts | 184° |
| 2026-05-04 16:49 | 37.36482 | -7.61462 | 9646 ft | 283 kts | 184° |
| 2026-05-04 16:50 | 37.32512 | -7.61469 | 9016 ft | 286 kts | 184° |
| 2026-05-04 16:50 | 37.28548 | -7.61472 | 8353 ft | 286 kts | 184° |
| 2026-05-04 16:51 | 37.24578 | -7.61475 | 7719 ft | 284 kts | 182° |
| 2026-05-04 16:51 | 37.22604 | -7.61474 | 7396 ft | 283 kts | 183° |
| 2026-05-04 16:51 | 37.18666 | -7.61474 | 6739 ft | 283 kts | 183° |
| 2026-05-04 16:52 | 37.15446 | -7.61479 | 6333 ft | 266 kts | 181° |
| 2026-05-04 16:52 | 37.13646 | -7.61477 | 6067 ft | 254 kts | 182° |
| 2026-05-04 16:53 | 37.09668 | -7.61477 | 5737 ft | 238 kts | 182° |
| 2026-05-04 16:53 | 37.05530 | -7.62768 | 5008 ft | 233 kts | 209° |
| 2026-05-04 16:54 | 37.04051 | -7.63632 | 4685 ft | 235 kts | 211° |
| 2026-05-04 16:55 | 36.98234 | -7.66932 | 3960 ft | 216 kts | 211° |
| 2026-05-04 16:55 | 36.97022 | -7.69729 | 3797 ft | 174 kts | 282° |
| 2026-05-04 16:56 | 36.97822 | -7.72278 | 3334 ft | 151 kts | 289° |
| 2026-05-04 16:56 | 36.98540 | -7.76206 | 2996 ft | 151 kts | 281° |
| 2026-05-04 16:57 | 36.98697 | -7.77487 | 2957 ft | 147 kts | 283° |
| 2026-05-04 16:57 | 36.99102 | -7.79980 | 2533 ft | 147 kts | 284° |
| 2026-05-04 16:58 | 36.99605 | -7.83802 | 1893 ft | 149 kts | 284° |
| 2026-05-04 16:58 | 36.99817 | -7.85046 | 1692 ft | 142 kts | 285° |
| 2026-05-04 16:59 | 37.00109 | -7.87323 | 1328 ft | 125 kts | 281° |
| 2026-05-04 17:00 | 37.00719 | -7.91550 | 725 ft | 127 kts | 277° |
| 2026-05-04 17:00 | 37.01207 | -7.94914 | 205 ft | 135 kts | 276° |
| 2026-05-04 17:01 | 37.01527 | -7.97181 | 27 ft | 112 kts | 279° |
| 2026-05-04 17:01 | 37.01684 | -7.98293 | 26 ft | 30 kts | 281° |
| 2026-05-04 17:02 | 37.01743 | -7.98566 | 27 ft | 10 kts | 321° |
| 2026-05-04 17:02 | 37.01889 | -7.98521 | 30 ft | 12 kts | 59° |
| 2026-05-04 17:03 | 37.01888 | -7.98417 | 27 ft | 9 kts | 99° |
| 2026-05-04 17:03 | 37.01876 | -7.98331 | 26 ft | 11 kts | 101° |
| 2026-05-04 17:03 | 37.01844 | -7.98119 | 24 ft | 14 kts | 99° |
| 2026-05-04 17:04 | 37.01807 | -7.97852 | 24 ft | 17 kts | 100° |
| 2026-05-04 17:04 | 37.01763 | -7.97534 | 24 ft | 20 kts | 100° |
| 2026-05-04 17:05 | 37.01719 | -7.97226 | 26 ft | 17 kts | 100° |
| 2026-05-04 17:05 | 37.01679 | -7.96954 | 27 ft | 9 kts | 97° |
| 2026-05-04 17:06 | 37.01752 | -7.96897 | 27 ft | 6 kts | 8° |
| 2026-05-04 17:06 | 37.01802 | -7.96884 | 30 ft | 8 kts | 20° |
| 2026-05-04 17:07 | 37.01888 | -7.96843 | 29 ft | 5 kts | 8° |
| 2026-05-04 17:07 | 37.01895 | -7.96841 | 29 ft | 2 kts | 9° |
| 2026-05-04 17:07 | 37.01913 | -7.96837 | 25 ft | 1 kts | 9° |
| 2026-05-04 17:07 | 37.01914 | -7.96837 | 25 ft | 0 kts | 9° |
| 2026-05-04 17:09 | 37.01913 | -7.96837 | 25 ft | 0 kts | 9° |